sensor_id;sensor_type;location;lat;lon;timestamp;temperature;humidity
20068;DHT22;10194;50.824;7.134;2022-09-01T00:01:38;16.70;99.90
20068;DHT22;10194;50.824;7.134;2022-09-01T00:04:08;16.60;99.90
20068;DHT22;10194;50.824;7.134;2022-09-01T00:06:37;16.50;99.90
20068;DHT22;10194;50.824;7.134;2022-09-01T00:09:07;16.40;99.90
20068;DHT22;10194;50.824;7.134;2022-09-01T00:11:36;16.30;99.90
20068;DHT22;10194;50.824;7.134;2022-09-01T00:14:03;16.20;99.90
20068;DHT22;10194;50.824;7.134;2022-09-01T00:16:31;16.10;99.90
20068;DHT22;10194;50.824;7.134;2022-09-01T00:18:58;16.10;99.90
20068;DHT22;10194;50.824;7.134;2022-09-01T00:21:29;16.00;99.90
20068;DHT22;10194;50.824;7.134;2022-09-01T00:23:56;16.00;99.90
20068;DHT22;10194;50.824;7.134;2022-09-01T00:26:22;15.90;99.90
20068;DHT22;10194;50.824;7.134;2022-09-01T00:28:48;15.90;99.90
20068;DHT22;10194;50.824;7.134;2022-09-01T00:31:15;15.80;99.90
20068;DHT22;10194;50.824;7.134;2022-09-01T00:33:44;15.80;99.90
20068;DHT22;10194;50.824;7.134;2022-09-01T00:36:11;15.80;99.90
20068;DHT22;10194;50.824;7.134;2022-09-01T00:38:38;15.80;99.90
20068;DHT22;10194;50.824;7.134;2022-09-01T00:41:06;15.80;99.90
20068;DHT22;10194;50.824;7.134;2022-09-01T00:43:46;15.80;99.90
20068;DHT22;10194;50.824;7.134;2022-09-01T00:46:29;15.70;99.90
20068;DHT22;10194;50.824;7.134;2022-09-01T00:51:58;15.70;99.90
20068;DHT22;10194;50.824;7.134;2022-09-01T00:54:32;15.70;99.90
20068;DHT22;10194;50.824;7.134;2022-09-01T00:57:02;15.70;99.90
20068;DHT22;10194;50.824;7.134;2022-09-01T00:59:30;15.60;99.90
20068;DHT22;10194;50.824;7.134;2022-09-01T01:01:57;15.60;99.90
20068;DHT22;10194;50.824;7.134;2022-09-01T01:04:24;15.60;99.90
20068;DHT22;10194;50.824;7.134;2022-09-01T01:06:54;15.60;99.90
20068;DHT22;10194;50.824;7.134;2022-09-01T01:09:37;15.50;99.90
20068;DHT22;10194;50.824;7.134;2022-09-01T01:12:12;15.50;99.90
20068;DHT22;10194;50.824;7.134;2022-09-01T01:14:47;15.40;99.90
20068;DHT22;10194;50.824;7.134;2022-09-01T01:17:19;15.40;99.90
20068;DHT22;10194;50.824;7.134;2022-09-01T01:19:53;15.30;99.90
20068;DHT22;10194;50.824;7.134;2022-09-01T01:23:04;15.30;99.90
20068;DHT22;10194;50.824;7.134;2022-09-01T01:25:51;15.30;99.90
20068;DHT22;10194;50.824;7.134;2022-09-01T01:28:22;15.20;99.90
20068;DHT22;10194;50.824;7.134;2022-09-01T01:31:01;15.30;99.90
20068;DHT22;10194;50.824;7.134;2022-09-01T01:33:44;15.30;99.90
20068;DHT22;10194;50.824;7.134;2022-09-01T01:36:30;15.30;99.90
20068;DHT22;10194;50.824;7.134;2022-09-01T01:39:00;15.30;99.90
20068;DHT22;10194;50.824;7.134;2022-09-01T01:41:31;15.40;99.90
20068;DHT22;10194;50.824;7.134;2022-09-01T01:43:59;15.40;99.90
20068;DHT22;10194;50.824;7.134;2022-09-01T01:46:30;15.50;99.90
20068;DHT22;10194;50.824;7.134;2022-09-01T01:48:58;15.60;99.90
20068;DHT22;10194;50.824;7.134;2022-09-01T01:51:26;15.70;99.90
20068;DHT22;10194;50.824;7.134;2022-09-01T01:53:57;15.70;99.90
20068;DHT22;10194;50.824;7.134;2022-09-01T01:56:26;15.70;99.90
20068;DHT22;10194;50.824;7.134;2022-09-01T01:58:53;15.70;99.90
20068;DHT22;10194;50.824;7.134;2022-09-01T02:01:22;15.70;99.90
20068;DHT22;10194;50.824;7.134;2022-09-01T02:03:50;15.70;99.90
20068;DHT22;10194;50.824;7.134;2022-09-01T02:06:20;15.70;99.90
20068;DHT22;10194;50.824;7.134;2022-09-01T02:08:49;15.70;99.90
20068;DHT22;10194;50.824;7.134;2022-09-01T02:11:24;15.60;99.90
20068;DHT22;10194;50.824;7.134;2022-09-01T02:13:52;15.60;99.90
20068;DHT22;10194;50.824;7.134;2022-09-01T02:16:23;15.60;99.90
20068;DHT22;10194;50.824;7.134;2022-09-01T02:18:50;15.60;99.90
20068;DHT22;10194;50.824;7.134;2022-09-01T02:21:18;15.60;99.90
20068;DHT22;10194;50.824;7.134;2022-09-01T02:23:50;15.60;99.90
20068;DHT22;10194;50.824;7.134;2022-09-01T02:26:25;15.70;99.90
20068;DHT22;10194;50.824;7.134;2022-09-01T02:29:01;15.70;99.90
20068;DHT22;10194;50.824;7.134;2022-09-01T02:31:33;15.70;99.90
20068;DHT22;10194;50.824;7.134;2022-09-01T02:34:04;15.70;99.90
20068;DHT22;10194;50.824;7.134;2022-09-01T02:36:36;15.70;99.90
20068;DHT22;10194;50.824;7.134;2022-09-01T02:39:05;15.70;99.90
20068;DHT22;10194;50.824;7.134;2022-09-01T02:41:31;15.60;99.90
20068;DHT22;10194;50.824;7.134;2022-09-01T02:43:58;15.60;99.90
20068;DHT22;10194;50.824;7.134;2022-09-01T02:46:27;15.50;99.90
20068;DHT22;10194;50.824;7.134;2022-09-01T02:48:54;15.50;99.90
20068;DHT22;10194;50.824;7.134;2022-09-01T02:51:25;15.40;99.90
20068;DHT22;10194;50.824;7.134;2022-09-01T02:53:52;15.30;99.90
20068;DHT22;10194;50.824;7.134;2022-09-01T02:56:21;15.20;99.90
20068;DHT22;10194;50.824;7.134;2022-09-01T02:58:49;15.10;99.90
20068;DHT22;10194;50.824;7.134;2022-09-01T03:01:22;15.10;99.90
20068;DHT22;10194;50.824;7.134;2022-09-01T03:03:54;15.10;99.90
20068;DHT22;10194;50.824;7.134;2022-09-01T03:06:25;15.10;99.90
20068;DHT22;10194;50.824;7.134;2022-09-01T03:08:54;15.00;99.90
20068;DHT22;10194;50.824;7.134;2022-09-01T03:11:25;14.90;99.90
20068;DHT22;10194;50.824;7.134;2022-09-01T03:13:51;14.90;99.90
20068;DHT22;10194;50.824;7.134;2022-09-01T03:16:18;14.80;99.90
20068;DHT22;10194;50.824;7.134;2022-09-01T03:18:46;14.70;99.90
20068;DHT22;10194;50.824;7.134;2022-09-01T03:21:13;14.60;99.90
20068;DHT22;10194;50.824;7.134;2022-09-01T03:23:42;14.50;99.90
20068;DHT22;10194;50.824;7.134;2022-09-01T03:26:09;14.60;99.90
20068;DHT22;10194;50.824;7.134;2022-09-01T03:28:35;14.50;99.90
20068;DHT22;10194;50.824;7.134;2022-09-01T03:31:04;14.50;99.90
20068;DHT22;10194;50.824;7.134;2022-09-01T03:33:30;14.40;99.90
20068;DHT22;10194;50.824;7.134;2022-09-01T03:35:57;14.30;99.90
20068;DHT22;10194;50.824;7.134;2022-09-01T03:38:24;14.20;99.90
20068;DHT22;10194;50.824;7.134;2022-09-01T03:40:53;14.10;99.90
20068;DHT22;10194;50.824;7.134;2022-09-01T03:43:27;14.10;99.90
20068;DHT22;10194;50.824;7.134;2022-09-01T03:45:55;14.10;99.90
20068;DHT22;10194;50.824;7.134;2022-09-01T03:48:26;14.00;99.90
20068;DHT22;10194;50.824;7.134;2022-09-01T03:50:54;13.90;99.90
20068;DHT22;10194;50.824;7.134;2022-09-01T03:53:28;13.90;99.90
20068;DHT22;10194;50.824;7.134;2022-09-01T03:55:56;13.90;99.90
20068;DHT22;10194;50.824;7.134;2022-09-01T03:58:23;13.80;99.90
20068;DHT22;10194;50.824;7.134;2022-09-01T04:00:52;13.80;99.90
20068;DHT22;10194;50.824;7.134;2022-09-01T04:03:22;13.80;99.90
20068;DHT22;10194;50.824;7.134;2022-09-01T04:05:51;13.70;99.90
20068;DHT22;10194;50.824;7.134;2022-09-01T04:08:19;13.70;99.90
20068;DHT22;10194;50.824;7.134;2022-09-01T04:10:49;13.60;99.90
20068;DHT22;10194;50.824;7.134;2022-09-01T04:13:38;13.60;99.90
20068;DHT22;10194;50.824;7.134;2022-09-01T04:16:12;13.50;99.90
20068;DHT22;10194;50.824;7.134;2022-09-01T04:19:10;13.50;99.90
20068;DHT22;10194;50.824;7.134;2022-09-01T04:21:55;13.40;99.90
20068;DHT22;10194;50.824;7.134;2022-09-01T04:24:28;13.30;99.90
20068;DHT22;10194;50.824;7.134;2022-09-01T04:26:57;13.30;99.90
20068;DHT22;10194;50.824;7.134;2022-09-01T04:29:27;13.30;99.90
20068;DHT22;10194;50.824;7.134;2022-09-01T04:31:59;13.20;99.90
20068;DHT22;10194;50.824;7.134;2022-09-01T04:34:33;13.20;99.90
20068;DHT22;10194;50.824;7.134;2022-09-01T04:37:13;13.20;99.90
20068;DHT22;10194;50.824;7.134;2022-09-01T04:39:48;13.20;99.90
20068;DHT22;10194;50.824;7.134;2022-09-01T04:42:17;13.20;99.90
20068;DHT22;10194;50.824;7.134;2022-09-01T04:44:45;13.20;99.90
20068;DHT22;10194;50.824;7.134;2022-09-01T04:47:11;13.20;99.90
20068;DHT22;10194;50.824;7.134;2022-09-01T04:49:39;13.20;99.90
20068;DHT22;10194;50.824;7.134;2022-09-01T04:52:05;13.20;99.90
20068;DHT22;10194;50.824;7.134;2022-09-01T04:54:30;13.20;99.90
20068;DHT22;10194;50.824;7.134;2022-09-01T04:56:58;13.10;99.90
20068;DHT22;10194;50.824;7.134;2022-09-01T04:59:24;13.10;99.90
20068;DHT22;10194;50.824;7.134;2022-09-01T05:01:51;13.10;99.90
20068;DHT22;10194;50.824;7.134;2022-09-01T05:04:24;13.10;99.90
20068;DHT22;10194;50.824;7.134;2022-09-01T05:06:56;13.10;99.90
20068;DHT22;10194;50.824;7.134;2022-09-01T05:09:27;13.10;99.90
20068;DHT22;10194;50.824;7.134;2022-09-01T05:11:54;13.00;99.90
20068;DHT22;10194;50.824;7.134;2022-09-01T05:14:22;13.00;99.90
20068;DHT22;10194;50.824;7.134;2022-09-01T05:16:49;13.00;99.90
20068;DHT22;10194;50.824;7.134;2022-09-01T05:19:16;13.00;99.90
20068;DHT22;10194;50.824;7.134;2022-09-01T05:21:46;13.00;99.90
20068;DHT22;10194;50.824;7.134;2022-09-01T05:24:14;13.00;99.90
20068;DHT22;10194;50.824;7.134;2022-09-01T05:26:42;13.00;99.90
20068;DHT22;10194;50.824;7.134;2022-09-01T05:29:12;13.10;99.90
20068;DHT22;10194;50.824;7.134;2022-09-01T05:31:45;13.20;99.90
20068;DHT22;10194;50.824;7.134;2022-09-01T05:34:13;13.20;99.90
20068;DHT22;10194;50.824;7.134;2022-09-01T05:36:45;13.20;99.90
20068;DHT22;10194;50.824;7.134;2022-09-01T05:39:15;13.20;99.90
20068;DHT22;10194;50.824;7.134;2022-09-01T05:41:41;13.30;99.90
20068;DHT22;10194;50.824;7.134;2022-09-01T05:44:08;13.30;99.90
20068;DHT22;10194;50.824;7.134;2022-09-01T05:46:36;13.40;99.90
20068;DHT22;10194;50.824;7.134;2022-09-01T05:49:04;13.50;99.90
20068;DHT22;10194;50.824;7.134;2022-09-01T05:51:31;13.60;99.90
20068;DHT22;10194;50.824;7.134;2022-09-01T05:54:00;13.70;99.90
20068;DHT22;10194;50.824;7.134;2022-09-01T05:56:28;13.70;99.90
20068;DHT22;10194;50.824;7.134;2022-09-01T05:58:55;13.80;99.90
20068;DHT22;10194;50.824;7.134;2022-09-01T06:01:25;13.90;99.90
20068;DHT22;10194;50.824;7.134;2022-09-01T06:03:54;14.00;99.90
20068;DHT22;10194;50.824;7.134;2022-09-01T06:06:24;14.20;99.90
20068;DHT22;10194;50.824;7.134;2022-09-01T06:08:54;14.40;99.90
20068;DHT22;10194;50.824;7.134;2022-09-01T06:11:25;15.00;99.90
20068;DHT22;10194;50.824;7.134;2022-09-01T06:13:52;15.30;99.90
20068;DHT22;10194;50.824;7.134;2022-09-01T06:16:22;15.40;99.90
20068;DHT22;10194;50.824;7.134;2022-09-01T06:18:49;15.50;99.90
20068;DHT22;10194;50.824;7.134;2022-09-01T06:21:19;15.70;99.90
20068;DHT22;10194;50.824;7.134;2022-09-01T06:23:49;16.10;99.90
20068;DHT22;10194;50.824;7.134;2022-09-01T06:26:29;16.60;99.90
20068;DHT22;10194;50.824;7.134;2022-09-01T06:28:59;17.40;99.90
20068;DHT22;10194;50.824;7.134;2022-09-01T06:31:30;18.20;99.90
20068;DHT22;10194;50.824;7.134;2022-09-01T06:34:05;19.00;99.90
20068;DHT22;10194;50.824;7.134;2022-09-01T06:36:35;19.50;99.90
20068;DHT22;10194;50.824;7.134;2022-09-01T06:39:05;19.90;99.90
20068;DHT22;10194;50.824;7.134;2022-09-01T06:41:32;20.10;99.90
20068;DHT22;10194;50.824;7.134;2022-09-01T06:43:59;20.20;99.90
20068;DHT22;10194;50.824;7.134;2022-09-01T06:46:26;20.40;99.90
20068;DHT22;10194;50.824;7.134;2022-09-01T06:48:53;20.60;99.90
20068;DHT22;10194;50.824;7.134;2022-09-01T06:51:24;20.90;99.90
20068;DHT22;10194;50.824;7.134;2022-09-01T06:53:54;21.00;99.90
20068;DHT22;10194;50.824;7.134;2022-09-01T06:56:27;21.40;99.90
20068;DHT22;10194;50.824;7.134;2022-09-01T06:58:56;21.60;99.90
20068;DHT22;10194;50.824;7.134;2022-09-01T07:01:23;21.70;99.90
20068;DHT22;10194;50.824;7.134;2022-09-01T07:03:52;21.70;99.90
20068;DHT22;10194;50.824;7.134;2022-09-01T07:06:20;21.90;99.90
20068;DHT22;10194;50.824;7.134;2022-09-01T07:08:53;21.90;98.80
20068;DHT22;10194;50.824;7.134;2022-09-01T07:11:29;21.90;98.70
20068;DHT22;10194;50.824;7.134;2022-09-01T07:13:59;22.10;98.50
20068;DHT22;10194;50.824;7.134;2022-09-01T07:16:29;22.50;97.20
20068;DHT22;10194;50.824;7.134;2022-09-01T07:19:00;22.70;97.60
20068;DHT22;10194;50.824;7.134;2022-09-01T07:21:29;23.00;96.10
20068;DHT22;10194;50.824;7.134;2022-09-01T07:23:59;23.20;95.00
20068;DHT22;10194;50.824;7.134;2022-09-01T07:26:29;23.30;96.10
20068;DHT22;10194;50.824;7.134;2022-09-01T07:28:56;23.20;94.70
20068;DHT22;10194;50.824;7.134;2022-09-01T07:31:28;22.90;93.60
20068;DHT22;10194;50.824;7.134;2022-09-01T07:33:58;22.70;94.20
20068;DHT22;10194;50.824;7.134;2022-09-01T07:36:25;22.90;94.30
20068;DHT22;10194;50.824;7.134;2022-09-01T07:38:52;22.60;93.80
20068;DHT22;10194;50.824;7.134;2022-09-01T07:41:24;22.50;94.70
20068;DHT22;10194;50.824;7.134;2022-09-01T07:43:51;22.40;96.20
20068;DHT22;10194;50.824;7.134;2022-09-01T07:46:20;22.30;96.20
20068;DHT22;10194;50.824;7.134;2022-09-01T07:48:52;22.30;95.50
20068;DHT22;10194;50.824;7.134;2022-09-01T07:51:20;22.10;94.60
20068;DHT22;10194;50.824;7.134;2022-09-01T07:53:48;22.40;95.70
20068;DHT22;10194;50.824;7.134;2022-09-01T07:56:16;22.20;94.30
20068;DHT22;10194;50.824;7.134;2022-09-01T07:58:46;22.10;94.40
20068;DHT22;10194;50.824;7.134;2022-09-01T08:01:19;22.00;95.30
20068;DHT22;10194;50.824;7.134;2022-09-01T08:03:48;22.20;95.10
20068;DHT22;10194;50.824;7.134;2022-09-01T08:06:17;21.90;94.30
20068;DHT22;10194;50.824;7.134;2022-09-01T08:08:48;21.90;96.00
20068;DHT22;10194;50.824;7.134;2022-09-01T08:11:24;22.20;94.90
20068;DHT22;10194;50.824;7.134;2022-09-01T08:13:54;22.10;95.90
20068;DHT22;10194;50.824;7.134;2022-09-01T08:16:24;22.30;93.70
20068;DHT22;10194;50.824;7.134;2022-09-01T08:18:51;22.20;96.00
20068;DHT22;10194;50.824;7.134;2022-09-01T08:21:18;22.60;93.80
20068;DHT22;10194;50.824;7.134;2022-09-01T08:23:46;22.60;95.30
20068;DHT22;10194;50.824;7.134;2022-09-01T08:26:15;22.50;93.20
20068;DHT22;10194;50.824;7.134;2022-09-01T08:28:42;22.20;95.10
20068;DHT22;10194;50.824;7.134;2022-09-01T08:31:11;22.40;94.30
20068;DHT22;10194;50.824;7.134;2022-09-01T08:33:40;22.30;95.00
20068;DHT22;10194;50.824;7.134;2022-09-01T08:36:09;22.60;95.70
20068;DHT22;10194;50.824;7.134;2022-09-01T08:38:37;22.40;92.90
20068;DHT22;10194;50.824;7.134;2022-09-01T08:41:12;22.20;94.20
20068;DHT22;10194;50.824;7.134;2022-09-01T08:46:41;22.50;93.30
20068;DHT22;10194;50.824;7.134;2022-09-01T08:49:17;22.70;93.30
20068;DHT22;10194;50.824;7.134;2022-09-01T08:51:52;23.00;95.00
20068;DHT22;10194;50.824;7.134;2022-09-01T08:57:13;23.30;92.60
20068;DHT22;10194;50.824;7.134;2022-09-01T08:59:41;22.60;93.00
20068;DHT22;10194;50.824;7.134;2022-09-01T09:07:45;23.20;93.30
20068;DHT22;10194;50.824;7.134;2022-09-01T09:10:28;23.40;93.10
20068;DHT22;10194;50.824;7.134;2022-09-01T09:18:51;23.70;91.90
20068;DHT22;10194;50.824;7.134;2022-09-01T09:21:43;23.40;90.40
20068;DHT22;10194;50.824;7.134;2022-09-01T09:24:33;22.70;91.10
20068;DHT22;10194;50.824;7.134;2022-09-01T09:27:22;22.90;93.10
20068;DHT22;10194;50.824;7.134;2022-09-01T09:30:03;23.10;93.20
20068;DHT22;10194;50.824;7.134;2022-09-01T09:38:20;23.50;90.40
20068;DHT22;10194;50.824;7.134;2022-09-01T09:43:41;23.40;90.50
20068;DHT22;10194;50.824;7.134;2022-09-01T09:46:43;23.60;91.10
20068;DHT22;10194;50.824;7.134;2022-09-01T09:49:32;23.80;90.70
20068;DHT22;10194;50.824;7.134;2022-09-01T09:52:17;23.80;90.40
20068;DHT22;10194;50.824;7.134;2022-09-01T09:57:24;23.70;85.10
20068;DHT22;10194;50.824;7.134;2022-09-01T10:02:44;23.40;87.40
20068;DHT22;10194;50.824;7.134;2022-09-01T10:05:40;23.40;89.20
20068;DHT22;10194;50.824;7.134;2022-09-01T10:11:03;23.50;86.10
20068;DHT22;10194;50.824;7.134;2022-09-01T10:13:32;23.20;86.20
20068;DHT22;10194;50.824;7.134;2022-09-01T10:16:08;23.20;86.70
20068;DHT22;10194;50.824;7.134;2022-09-01T10:18:44;23.40;87.70
20068;DHT22;10194;50.824;7.134;2022-09-01T10:21:15;23.60;86.50
20068;DHT22;10194;50.824;7.134;2022-09-01T10:23:47;23.50;87.50
20068;DHT22;10194;50.824;7.134;2022-09-01T10:26:45;23.70;86.00
20068;DHT22;10194;50.824;7.134;2022-09-01T10:29:19;23.60;85.70
20068;DHT22;10194;50.824;7.134;2022-09-01T10:31:50;23.60;87.40
20068;DHT22;10194;50.824;7.134;2022-09-01T10:34:18;23.50;87.00
20068;DHT22;10194;50.824;7.134;2022-09-01T10:36:46;23.60;88.60
20068;DHT22;10194;50.824;7.134;2022-09-01T10:39:14;23.60;87.90
20068;DHT22;10194;50.824;7.134;2022-09-01T10:41:44;23.80;87.70
20068;DHT22;10194;50.824;7.134;2022-09-01T10:44:21;24.10;85.30
20068;DHT22;10194;50.824;7.134;2022-09-01T10:47:09;24.00;84.60
20068;DHT22;10194;50.824;7.134;2022-09-01T10:55:15;24.30;85.30
20068;DHT22;10194;50.824;7.134;2022-09-01T10:57:46;24.60;82.00
20068;DHT22;10194;50.824;7.134;2022-09-01T11:11:54;25.00;82.00
20068;DHT22;10194;50.824;7.134;2022-09-01T11:14:18;25.10;81.30
20068;DHT22;10194;50.824;7.134;2022-09-01T11:17:22;25.20;81.30
20068;DHT22;10194;50.824;7.134;2022-09-01T11:20:03;25.10;80.30
20068;DHT22;10194;50.824;7.134;2022-09-01T11:25:56;25.10;78.80
20068;DHT22;10194;50.824;7.134;2022-09-01T11:42:38;25.30;77.40
20068;DHT22;10194;50.824;7.134;2022-09-01T11:47:21;25.00;78.70
20068;DHT22;10194;50.824;7.134;2022-09-01T11:49:59;25.00;79.40
20068;DHT22;10194;50.824;7.134;2022-09-01T11:52:29;24.80;78.70
20068;DHT22;10194;50.824;7.134;2022-09-01T11:54:57;24.70;79.60
20068;DHT22;10194;50.824;7.134;2022-09-01T11:57:30;24.80;79.10
20068;DHT22;10194;50.824;7.134;2022-09-01T12:00:06;24.70;80.40
20068;DHT22;10194;50.824;7.134;2022-09-01T12:02:41;24.70;79.50
20068;DHT22;10194;50.824;7.134;2022-09-01T12:05:34;24.70;80.10
20068;DHT22;10194;50.824;7.134;2022-09-01T12:08:11;24.50;80.20
20068;DHT22;10194;50.824;7.134;2022-09-01T12:10:39;24.50;81.00
20068;DHT22;10194;50.824;7.134;2022-09-01T12:13:18;24.50;82.20
20068;DHT22;10194;50.824;7.134;2022-09-01T12:15:53;24.70;81.20
20068;DHT22;10194;50.824;7.134;2022-09-01T12:18:27;24.50;81.30
20068;DHT22;10194;50.824;7.134;2022-09-01T12:20:58;24.50;82.40
20068;DHT22;10194;50.824;7.134;2022-09-01T12:23:29;24.40;80.60
20068;DHT22;10194;50.824;7.134;2022-09-01T12:26:02;24.00;83.00
20068;DHT22;10194;50.824;7.134;2022-09-01T12:28:30;24.00;84.00
20068;DHT22;10194;50.824;7.134;2022-09-01T12:31:04;24.00;84.30
20068;DHT22;10194;50.824;7.134;2022-09-01T12:33:32;23.90;83.80
20068;DHT22;10194;50.824;7.134;2022-09-01T12:36:25;23.90;84.70
20068;DHT22;10194;50.824;7.134;2022-09-01T12:39:19;23.90;84.30
20068;DHT22;10194;50.824;7.134;2022-09-01T12:42:00;23.90;84.80
20068;DHT22;10194;50.824;7.134;2022-09-01T12:47:05;23.80;84.70
20068;DHT22;10194;50.824;7.134;2022-09-01T12:49:44;23.90;84.70
20068;DHT22;10194;50.824;7.134;2022-09-01T12:54:51;23.90;83.50
20068;DHT22;10194;50.824;7.134;2022-09-01T12:57:30;23.80;84.40
20068;DHT22;10194;50.824;7.134;2022-09-01T13:02:43;23.60;85.80
20068;DHT22;10194;50.824;7.134;2022-09-01T13:05:34;23.60;84.70
20068;DHT22;10194;50.824;7.134;2022-09-01T13:08:20;23.60;84.50
20068;DHT22;10194;50.824;7.134;2022-09-01T13:13:26;23.80;84.50
20068;DHT22;10194;50.824;7.134;2022-09-01T13:15:56;23.90;83.80
20068;DHT22;10194;50.824;7.134;2022-09-01T13:18:27;23.90;84.10
20068;DHT22;10194;50.824;7.134;2022-09-01T13:20:55;24.10;84.40
20068;DHT22;10194;50.824;7.134;2022-09-01T13:23:22;24.10;84.10
20068;DHT22;10194;50.824;7.134;2022-09-01T13:25:49;23.90;83.20
20068;DHT22;10194;50.824;7.134;2022-09-01T13:28:16;23.80;83.40
20068;DHT22;10194;50.824;7.134;2022-09-01T13:30:44;23.80;85.20
20068;DHT22;10194;50.824;7.134;2022-09-01T13:33:12;23.80;84.80
20068;DHT22;10194;50.824;7.134;2022-09-01T13:35:38;23.90;84.20
20068;DHT22;10194;50.824;7.134;2022-09-01T13:38:07;24.00;83.10
20068;DHT22;10194;50.824;7.134;2022-09-01T13:40:35;24.10;83.00
20068;DHT22;10194;50.824;7.134;2022-09-01T13:43:01;24.30;82.10
20068;DHT22;10194;50.824;7.134;2022-09-01T13:45:29;24.40;81.00
20068;DHT22;10194;50.824;7.134;2022-09-01T13:47:55;24.50;80.90
20068;DHT22;10194;50.824;7.134;2022-09-01T13:50:21;24.70;81.30
20068;DHT22;10194;50.824;7.134;2022-09-01T13:52:53;24.70;79.80
20068;DHT22;10194;50.824;7.134;2022-09-01T13:55:27;24.70;79.80
20068;DHT22;10194;50.824;7.134;2022-09-01T13:57:55;24.50;79.00
20068;DHT22;10194;50.824;7.134;2022-09-01T14:00:25;24.50;79.40
20068;DHT22;10194;50.824;7.134;2022-09-01T14:02:59;24.50;77.80
20068;DHT22;10194;50.824;7.134;2022-09-01T14:05:30;24.50;77.60
20068;DHT22;10194;50.824;7.134;2022-09-01T14:07:58;24.50;78.30
20068;DHT22;10194;50.824;7.134;2022-09-01T14:10:27;24.60;77.40
20068;DHT22;10194;50.824;7.134;2022-09-01T14:12:54;24.60;77.80
20068;DHT22;10194;50.824;7.134;2022-09-01T14:15:20;24.80;76.50
20068;DHT22;10194;50.824;7.134;2022-09-01T14:17:49;24.90;73.80
20068;DHT22;10194;50.824;7.134;2022-09-01T14:20:19;24.90;73.70
20068;DHT22;10194;50.824;7.134;2022-09-01T14:22:47;24.90;73.90
20068;DHT22;10194;50.824;7.134;2022-09-01T14:25:14;24.80;74.30
20068;DHT22;10194;50.824;7.134;2022-09-01T14:27:41;24.90;72.80
20068;DHT22;10194;50.824;7.134;2022-09-01T14:30:19;24.60;74.00
20068;DHT22;10194;50.824;7.134;2022-09-01T14:32:47;24.70;74.90
20068;DHT22;10194;50.824;7.134;2022-09-01T14:35:14;24.70;75.60
20068;DHT22;10194;50.824;7.134;2022-09-01T14:37:41;24.70;75.40
20068;DHT22;10194;50.824;7.134;2022-09-01T14:40:08;24.90;74.90
20068;DHT22;10194;50.824;7.134;2022-09-01T14:42:35;25.00;75.80
20068;DHT22;10194;50.824;7.134;2022-09-01T14:45:02;24.80;74.10
20068;DHT22;10194;50.824;7.134;2022-09-01T14:47:30;24.80;74.60
20068;DHT22;10194;50.824;7.134;2022-09-01T14:49:56;24.90;75.90
20068;DHT22;10194;50.824;7.134;2022-09-01T14:52:23;25.00;73.20
20068;DHT22;10194;50.824;7.134;2022-09-01T14:54:50;25.10;69.00
20068;DHT22;10194;50.824;7.134;2022-09-01T14:57:16;25.10;68.30
20068;DHT22;10194;50.824;7.134;2022-09-01T14:59:41;25.00;69.50
20068;DHT22;10194;50.824;7.134;2022-09-01T15:02:08;25.10;68.10
20068;DHT22;10194;50.824;7.134;2022-09-01T15:04:34;25.10;67.40
20068;DHT22;10194;50.824;7.134;2022-09-01T15:07:00;25.30;66.40
20068;DHT22;10194;50.824;7.134;2022-09-01T15:09:29;25.30;68.20
20068;DHT22;10194;50.824;7.134;2022-09-01T15:11:55;25.30;65.90
20068;DHT22;10194;50.824;7.134;2022-09-01T15:14:22;25.20;66.20
20068;DHT22;10194;50.824;7.134;2022-09-01T15:16:48;25.20;66.50
20068;DHT22;10194;50.824;7.134;2022-09-01T15:19:14;25.10;67.30
20068;DHT22;10194;50.824;7.134;2022-09-01T15:21:41;25.10;66.00
20068;DHT22;10194;50.824;7.134;2022-09-01T15:24:08;25.00;66.80
20068;DHT22;10194;50.824;7.134;2022-09-01T15:26:35;24.80;65.70
20068;DHT22;10194;50.824;7.134;2022-09-01T15:29:03;24.70;65.30
20068;DHT22;10194;50.824;7.134;2022-09-01T15:31:30;24.50;66.70
20068;DHT22;10194;50.824;7.134;2022-09-01T15:33:59;24.40;66.30
20068;DHT22;10194;50.824;7.134;2022-09-01T15:36:28;24.30;68.40
20068;DHT22;10194;50.824;7.134;2022-09-01T15:38:55;24.30;68.20
20068;DHT22;10194;50.824;7.134;2022-09-01T15:41:24;24.40;68.50
20068;DHT22;10194;50.824;7.134;2022-09-01T15:43:55;24.40;68.30
20068;DHT22;10194;50.824;7.134;2022-09-01T15:46:21;24.30;67.50
20068;DHT22;10194;50.824;7.134;2022-09-01T15:48:55;24.40;67.90
20068;DHT22;10194;50.824;7.134;2022-09-01T15:53:52;24.50;68.80
20068;DHT22;10194;50.824;7.134;2022-09-01T15:56:19;24.60;67.60
20068;DHT22;10194;50.824;7.134;2022-09-01T15:58:46;24.80;65.20
20068;DHT22;10194;50.824;7.134;2022-09-01T16:01:14;24.90;65.00
20068;DHT22;10194;50.824;7.134;2022-09-01T16:03:41;24.90;64.50
20068;DHT22;10194;50.824;7.134;2022-09-01T16:06:08;25.00;64.50
20068;DHT22;10194;50.824;7.134;2022-09-01T16:08:34;25.00;63.80
20068;DHT22;10194;50.824;7.134;2022-09-01T16:11:05;25.00;63.40
20068;DHT22;10194;50.824;7.134;2022-09-01T16:13:35;24.90;64.40
20068;DHT22;10194;50.824;7.134;2022-09-01T16:16:12;24.80;63.90
20068;DHT22;10194;50.824;7.134;2022-09-01T16:21:53;24.80;64.50
20068;DHT22;10194;50.824;7.134;2022-09-01T16:24:26;24.80;64.00
20068;DHT22;10194;50.824;7.134;2022-09-01T16:26:55;24.80;64.50
20068;DHT22;10194;50.824;7.134;2022-09-01T16:29:37;24.80;62.60
20068;DHT22;10194;50.824;7.134;2022-09-01T16:32:07;24.80;63.20
20068;DHT22;10194;50.824;7.134;2022-09-01T16:34:42;24.70;63.30
20068;DHT22;10194;50.824;7.134;2022-09-01T16:37:47;24.70;63.40
20068;DHT22;10194;50.824;7.134;2022-09-01T16:40:58;24.60;64.10
20068;DHT22;10194;50.824;7.134;2022-09-01T16:43:43;24.60;65.00
20068;DHT22;10194;50.824;7.134;2022-09-01T16:46:39;24.70;63.30
20068;DHT22;10194;50.824;7.134;2022-09-01T16:49:36;24.60;62.50
20068;DHT22;10194;50.824;7.134;2022-09-01T16:52:48;24.60;62.90
20068;DHT22;10194;50.824;7.134;2022-09-01T16:55:23;24.50;62.80
20068;DHT22;10194;50.824;7.134;2022-09-01T16:58:12;24.50;63.30
20068;DHT22;10194;50.824;7.134;2022-09-01T17:01:00;24.40;64.00
20068;DHT22;10194;50.824;7.134;2022-09-01T17:06:48;24.40;63.00
20068;DHT22;10194;50.824;7.134;2022-09-01T17:12:32;24.20;64.60
20068;DHT22;10194;50.824;7.134;2022-09-01T17:15:11;24.30;64.60
20068;DHT22;10194;50.824;7.134;2022-09-01T17:20:55;24.20;64.80
20068;DHT22;10194;50.824;7.134;2022-09-01T17:23:29;24.20;65.70
20068;DHT22;10194;50.824;7.134;2022-09-01T17:26:04;24.20;64.80
20068;DHT22;10194;50.824;7.134;2022-09-01T17:28:36;24.20;65.20
20068;DHT22;10194;50.824;7.134;2022-09-01T17:31:28;24.10;66.20
20068;DHT22;10194;50.824;7.134;2022-09-01T17:34:15;24.20;64.80
20068;DHT22;10194;50.824;7.134;2022-09-01T17:40:02;23.90;65.60
20068;DHT22;10194;50.824;7.134;2022-09-01T17:48:06;23.70;66.70